sensor_id;sensor_type;location;lat;lon;timestamp;P1;durP1;ratioP1;P2;durP2;ratioP2
42832;SDS011;64089;51.478;5.692;2022-12-10T00:00:53;45.25;;;16.80;;
42832;SDS011;64089;51.478;5.692;2022-12-10T00:03:19;45.28;;;14.48;;
42832;SDS011;64089;51.478;5.692;2022-12-10T00:05:45;41.17;;;15.38;;
42832;SDS011;64089;51.478;5.692;2022-12-10T00:08:10;48.72;;;16.15;;
42832;SDS011;64089;51.478;5.692;2022-12-10T00:10:39;34.92;;;13.65;;
42832;SDS011;64089;51.478;5.692;2022-12-10T00:13:05;37.20;;;16.42;;
42832;SDS011;64089;51.478;5.692;2022-12-10T00:15:34;34.72;;;13.77;;
42832;SDS011;64089;51.478;5.692;2022-12-10T00:18:00;46.40;;;16.05;;
42832;SDS011;64089;51.478;5.692;2022-12-10T00:20:25;39.85;;;15.85;;
42832;SDS011;64089;51.478;5.692;2022-12-10T00:22:51;47.03;;;17.45;;
42832;SDS011;64089;51.478;5.692;2022-12-10T00:25:16;48.40;;;16.58;;
42832;SDS011;64089;51.478;5.692;2022-12-10T00:27:42;43.92;;;15.77;;
42832;SDS011;64089;51.478;5.692;2022-12-10T00:30:08;41.88;;;15.57;;
42832;SDS011;64089;51.478;5.692;2022-12-10T00:32:34;42.08;;;15.93;;
42832;SDS011;64089;51.478;5.692;2022-12-10T00:35:00;41.65;;;15.57;;
42832;SDS011;64089;51.478;5.692;2022-12-10T00:37:25;42.88;;;15.95;;
42832;SDS011;64089;51.478;5.692;2022-12-10T00:39:51;47.95;;;16.50;;
42832;SDS011;64089;51.478;5.692;2022-12-10T00:42:20;45.28;;;15.23;;
42832;SDS011;64089;51.478;5.692;2022-12-10T00:44:45;50.83;;;17.35;;
42832;SDS011;64089;51.478;5.692;2022-12-10T00:47:11;51.15;;;16.90;;
42832;SDS011;64089;51.478;5.692;2022-12-10T00:49:36;41.05;;;15.68;;
42832;SDS011;64089;51.478;5.692;2022-12-10T00:52:02;50.90;;;18.45;;
42832;SDS011;64089;51.478;5.692;2022-12-10T00:54:27;49.30;;;16.75;;
42832;SDS011;64089;51.478;5.692;2022-12-10T00:56:53;45.97;;;17.25;;
42832;SDS011;64089;51.478;5.692;2022-12-10T00:59:19;48.97;;;17.08;;
42832;SDS011;64089;51.478;5.692;2022-12-10T01:01:44;45.90;;;15.05;;
42832;SDS011;64089;51.478;5.692;2022-12-10T01:04:14;41.85;;;15.05;;
42832;SDS011;64089;51.478;5.692;2022-12-10T01:06:48;50.57;;;17.03;;
42832;SDS011;64089;51.478;5.692;2022-12-10T01:09:16;50.60;;;17.73;;
42832;SDS011;64089;51.478;5.692;2022-12-10T01:11:47;45.17;;;18.35;;
42832;SDS011;64089;51.478;5.692;2022-12-10T01:14:16;48.88;;;17.20;;
42832;SDS011;64089;51.478;5.692;2022-12-10T01:16:43;43.17;;;15.95;;
42832;SDS011;64089;51.478;5.692;2022-12-10T01:19:09;35.35;;;15.13;;
42832;SDS011;64089;51.478;5.692;2022-12-10T01:21:35;46.05;;;16.35;;
42832;SDS011;64089;51.478;5.692;2022-12-10T01:24:01;37.88;;;16.67;;
42832;SDS011;64089;51.478;5.692;2022-12-10T01:26:28;42.90;;;17.23;;
42832;SDS011;64089;51.478;5.692;2022-12-10T01:28:56;41.17;;;14.52;;
42832;SDS011;64089;51.478;5.692;2022-12-10T01:31:29;40.67;;;15.48;;
42832;SDS011;64089;51.478;5.692;2022-12-10T01:33:57;52.42;;;16.20;;
42832;SDS011;64089;51.478;5.692;2022-12-10T01:36:28;44.97;;;15.60;;
42832;SDS011;64089;51.478;5.692;2022-12-10T01:38:55;45.20;;;16.30;;
42832;SDS011;64089;51.478;5.692;2022-12-10T01:41:22;49.45;;;17.58;;
42832;SDS011;64089;51.478;5.692;2022-12-10T01:44:00;38.95;;;16.40;;
42832;SDS011;64089;51.478;5.692;2022-12-10T01:46:32;43.67;;;17.20;;
42832;SDS011;64089;51.478;5.692;2022-12-10T01:49:06;41.53;;;16.70;;
42832;SDS011;64089;51.478;5.692;2022-12-10T01:51:35;37.00;;;15.52;;
42832;SDS011;64089;51.478;5.692;2022-12-10T01:54:04;50.22;;;16.45;;
42832;SDS011;64089;51.478;5.692;2022-12-10T01:56:31;55.20;;;15.60;;
42832;SDS011;64089;51.478;5.692;2022-12-10T01:59:03;53.40;;;16.55;;
42832;SDS011;64089;51.478;5.692;2022-12-10T02:15:17;47.80;;;17.40;;
42832;SDS011;64089;51.478;5.692;2022-12-10T02:18:30;49.03;;;18.30;;
42832;SDS011;64089;51.478;5.692;2022-12-10T02:20:45;49.10;;;18.40;;
42832;SDS011;64089;51.478;5.692;2022-12-10T02:25:59;41.75;;;16.70;;
42832;SDS011;64089;51.478;5.692;2022-12-10T02:31:13;49.55;;;17.65;;
42832;SDS011;64089;51.478;5.692;2022-12-10T02:33:43;53.85;;;18.45;;
42832;SDS011;64089;51.478;5.692;2022-12-10T02:36:13;55.30;;;19.33;;
42832;SDS011;64089;51.478;5.692;2022-12-10T02:38:40;48.92;;;18.90;;
42832;SDS011;64089;51.478;5.692;2022-12-10T02:41:10;50.25;;;19.42;;
42832;SDS011;64089;51.478;5.692;2022-12-10T02:43:49;51.30;;;18.95;;
42832;SDS011;64089;51.478;5.692;2022-12-10T02:46:17;49.28;;;18.63;;
42832;SDS011;64089;51.478;5.692;2022-12-10T02:48:44;49.72;;;18.52;;
42832;SDS011;64089;51.478;5.692;2022-12-10T02:51:11;67.18;;;19.92;;
42832;SDS011;64089;51.478;5.692;2022-12-10T02:53:41;67.22;;;22.02;;
42832;SDS011;64089;51.478;5.692;2022-12-10T02:56:13;62.20;;;21.23;;
42832;SDS011;64089;51.478;5.692;2022-12-10T03:04:10;56.92;;;19.15;;
42832;SDS011;64089;51.478;5.692;2022-12-10T03:07:07;59.70;;;20.75;;
42832;SDS011;64089;51.478;5.692;2022-12-10T03:09:38;64.40;;;21.80;;
42832;SDS011;64089;51.478;5.692;2022-12-10T03:12:34;58.83;;;20.35;;
42832;SDS011;64089;51.478;5.692;2022-12-10T03:15:05;62.40;;;22.45;;
42832;SDS011;64089;51.478;5.692;2022-12-10T03:17:33;60.58;;;20.58;;
42832;SDS011;64089;51.478;5.692;2022-12-10T03:20:01;65.20;;;21.75;;
42832;SDS011;64089;51.478;5.692;2022-12-10T03:22:29;62.88;;;20.80;;
42832;SDS011;64089;51.478;5.692;2022-12-10T03:24:57;60.40;;;21.92;;
42832;SDS011;64089;51.478;5.692;2022-12-10T03:27:24;68.65;;;22.77;;
42832;SDS011;64089;51.478;5.692;2022-12-10T03:29:52;63.05;;;21.83;;
42832;SDS011;64089;51.478;5.692;2022-12-10T03:32:21;82.45;;;23.33;;
42832;SDS011;64089;51.478;5.692;2022-12-10T03:34:50;69.20;;;23.13;;
42832;SDS011;64089;51.478;5.692;2022-12-10T03:37:17;70.80;;;23.20;;
42832;SDS011;64089;51.478;5.692;2022-12-10T03:39:44;70.82;;;22.63;;
42832;SDS011;64089;51.478;5.692;2022-12-10T03:42:10;65.80;;;22.85;;
42832;SDS011;64089;51.478;5.692;2022-12-10T03:44:37;73.30;;;25.80;;
42832;SDS011;64089;51.478;5.692;2022-12-10T03:47:05;70.68;;;22.67;;
42832;SDS011;64089;51.478;5.692;2022-12-10T03:49:33;72.68;;;23.20;;
42832;SDS011;64089;51.478;5.692;2022-12-10T03:51:59;67.28;;;22.45;;
42832;SDS011;64089;51.478;5.692;2022-12-10T03:54:25;79.68;;;24.30;;
42832;SDS011;64089;51.478;5.692;2022-12-10T03:56:50;79.57;;;25.35;;
42832;SDS011;64089;51.478;5.692;2022-12-10T03:59:16;63.92;;;22.73;;
42832;SDS011;64089;51.478;5.692;2022-12-10T04:01:45;67.18;;;23.25;;
42832;SDS011;64089;51.478;5.692;2022-12-10T04:04:11;68.68;;;23.15;;
42832;SDS011;64089;51.478;5.692;2022-12-10T04:06:37;68.28;;;24.00;;
42832;SDS011;64089;51.478;5.692;2022-12-10T04:09:04;79.43;;;24.90;;
42832;SDS011;64089;51.478;5.692;2022-12-10T04:11:30;79.75;;;22.50;;
42832;SDS011;64089;51.478;5.692;2022-12-10T04:13:55;59.97;;;21.85;;
42832;SDS011;64089;51.478;5.692;2022-12-10T04:16:39;61.88;;;21.02;;
42832;SDS011;64089;51.478;5.692;2022-12-10T04:21:33;57.83;;;20.75;;
42832;SDS011;64089;51.478;5.692;2022-12-10T04:24:19;65.43;;;20.75;;
42832;SDS011;64089;51.478;5.692;2022-12-10T04:27:08;70.07;;;23.45;;
42832;SDS011;64089;51.478;5.692;2022-12-10T04:29:38;59.05;;;22.45;;
42832;SDS011;64089;51.478;5.692;2022-12-10T04:32:04;71.47;;;23.92;;
42832;SDS011;64089;51.478;5.692;2022-12-10T04:34:30;85.28;;;26.33;;
42832;SDS011;64089;51.478;5.692;2022-12-10T04:36:57;68.75;;;23.52;;
42832;SDS011;64089;51.478;5.692;2022-12-10T04:39:23;69.20;;;22.40;;
42832;SDS011;64089;51.478;5.692;2022-12-10T04:41:49;70.68;;;24.73;;
42832;SDS011;64089;51.478;5.692;2022-12-10T04:44:15;72.20;;;23.08;;
42832;SDS011;64089;51.478;5.692;2022-12-10T04:46:41;75.82;;;23.08;;
42832;SDS011;64089;51.478;5.692;2022-12-10T04:49:10;59.22;;;21.27;;
42832;SDS011;64089;51.478;5.692;2022-12-10T04:51:36;79.25;;;23.58;;
42832;SDS011;64089;51.478;5.692;2022-12-10T04:54:02;62.88;;;22.38;;
42832;SDS011;64089;51.478;5.692;2022-12-10T04:56:28;65.13;;;22.42;;
42832;SDS011;64089;51.478;5.692;2022-12-10T04:58:55;71.50;;;22.13;;
42832;SDS011;64089;51.478;5.692;2022-12-10T05:01:21;68.38;;;23.38;;
42832;SDS011;64089;51.478;5.692;2022-12-10T05:03:47;71.38;;;22.55;;
42832;SDS011;64089;51.478;5.692;2022-12-10T05:06:14;69.40;;;23.65;;
42832;SDS011;64089;51.478;5.692;2022-12-10T05:08:42;67.93;;;21.58;;
42832;SDS011;64089;51.478;5.692;2022-12-10T05:11:12;61.03;;;22.48;;
42832;SDS011;64089;51.478;5.692;2022-12-10T05:13:39;69.43;;;21.77;;
42832;SDS011;64089;51.478;5.692;2022-12-10T05:16:06;66.35;;;23.60;;
42832;SDS011;64089;51.478;5.692;2022-12-10T05:18:34;68.53;;;21.52;;
42832;SDS011;64089;51.478;5.692;2022-12-10T05:21:01;66.22;;;21.73;;
42832;SDS011;64089;51.478;5.692;2022-12-10T05:23:28;64.32;;;20.75;;
42832;SDS011;64089;51.478;5.692;2022-12-10T05:26:05;68.60;;;20.13;;
42832;SDS011;64089;51.478;5.692;2022-12-10T05:28:37;71.40;;;21.73;;
42832;SDS011;64089;51.478;5.692;2022-12-10T05:31:14;65.88;;;21.52;;
42832;SDS011;64089;51.478;5.692;2022-12-10T05:33:45;71.03;;;21.75;;
42832;SDS011;64089;51.478;5.692;2022-12-10T05:36:12;71.38;;;23.10;;
42832;SDS011;64089;51.478;5.692;2022-12-10T05:38:38;78.95;;;25.05;;
42832;SDS011;64089;51.478;5.692;2022-12-10T05:41:15;76.03;;;23.10;;
42832;SDS011;64089;51.478;5.692;2022-12-10T05:43:45;78.30;;;23.88;;
42832;SDS011;64089;51.478;5.692;2022-12-10T05:46:13;71.97;;;22.92;;
42832;SDS011;64089;51.478;5.692;2022-12-10T05:48:43;67.18;;;23.63;;
42832;SDS011;64089;51.478;5.692;2022-12-10T05:51:16;80.10;;;22.45;;
42832;SDS011;64089;51.478;5.692;2022-12-10T05:53:44;77.70;;;24.65;;
42832;SDS011;64089;51.478;5.692;2022-12-10T05:56:11;62.30;;;19.48;;
42832;SDS011;64089;51.478;5.692;2022-12-10T05:58:39;68.00;;;21.77;;
42832;SDS011;64089;51.478;5.692;2022-12-10T06:01:06;73.78;;;23.60;;
42832;SDS011;64089;51.478;5.692;2022-12-10T06:03:37;70.18;;;21.17;;
42832;SDS011;64089;51.478;5.692;2022-12-10T06:06:03;70.57;;;21.08;;
42832;SDS011;64089;51.478;5.692;2022-12-10T06:08:29;68.72;;;22.00;;
42832;SDS011;64089;51.478;5.692;2022-12-10T06:10:55;76.35;;;22.85;;
42832;SDS011;64089;51.478;5.692;2022-12-10T06:13:23;70.95;;;22.08;;
42832;SDS011;64089;51.478;5.692;2022-12-10T06:15:49;69.63;;;21.77;;
42832;SDS011;64089;51.478;5.692;2022-12-10T06:18:15;82.80;;;22.10;;
42832;SDS011;64089;51.478;5.692;2022-12-10T06:20:40;66.90;;;23.00;;
42832;SDS011;64089;51.478;5.692;2022-12-10T06:23:06;62.72;;;21.10;;
42832;SDS011;64089;51.478;5.692;2022-12-10T06:25:32;64.55;;;22.05;;
42832;SDS011;64089;51.478;5.692;2022-12-10T06:27:58;66.05;;;23.30;;
42832;SDS011;64089;51.478;5.692;2022-12-10T06:30:24;73.72;;;22.10;;
42832;SDS011;64089;51.478;5.692;2022-12-10T06:32:49;72.35;;;19.05;;
42832;SDS011;64089;51.478;5.692;2022-12-10T06:35:15;69.13;;;21.10;;
42832;SDS011;64089;51.478;5.692;2022-12-10T06:37:41;65.55;;;22.48;;
42832;SDS011;64089;51.478;5.692;2022-12-10T06:40:07;69.25;;;21.98;;
42832;SDS011;64089;51.478;5.692;2022-12-10T06:42:33;59.60;;;20.25;;
42832;SDS011;64089;51.478;5.692;2022-12-10T06:44:59;63.47;;;19.85;;
42832;SDS011;64089;51.478;5.692;2022-12-10T06:47:24;74.32;;;22.13;;
42832;SDS011;64089;51.478;5.692;2022-12-10T06:49:50;62.50;;;19.45;;
42832;SDS011;64089;51.478;5.692;2022-12-10T06:52:16;67.18;;;21.70;;
42832;SDS011;64089;51.478;5.692;2022-12-10T06:54:41;64.05;;;19.48;;
42832;SDS011;64089;51.478;5.692;2022-12-10T06:57:10;72.38;;;21.58;;
42832;SDS011;64089;51.478;5.692;2022-12-10T06:59:36;52.25;;;18.00;;
42832;SDS011;64089;51.478;5.692;2022-12-10T07:02:01;62.63;;;19.58;;
42832;SDS011;64089;51.478;5.692;2022-12-10T07:04:27;69.60;;;21.35;;
42832;SDS011;64089;51.478;5.692;2022-12-10T07:06:53;59.83;;;19.05;;
42832;SDS011;64089;51.478;5.692;2022-12-10T07:09:18;57.53;;;18.00;;
42832;SDS011;64089;51.478;5.692;2022-12-10T07:11:44;53.65;;;17.30;;
42832;SDS011;64089;51.478;5.692;2022-12-10T07:14:12;63.75;;;20.58;;
42832;SDS011;64089;51.478;5.692;2022-12-10T07:16:40;63.22;;;17.73;;
42832;SDS011;64089;51.478;5.692;2022-12-10T07:19:06;53.95;;;18.05;;
42832;SDS011;64089;51.478;5.692;2022-12-10T07:21:35;67.30;;;17.88;;
42832;SDS011;64089;51.478;5.692;2022-12-10T07:24:20;57.55;;;20.42;;
42832;SDS011;64089;51.478;5.692;2022-12-10T07:26:46;64.97;;;19.30;;
42832;SDS011;64089;51.478;5.692;2022-12-10T07:29:13;54.03;;;17.35;;
42832;SDS011;64089;51.478;5.692;2022-12-10T07:31:40;56.60;;;18.73;;
42832;SDS011;64089;51.478;5.692;2022-12-10T07:34:06;56.83;;;17.17;;
42832;SDS011;64089;51.478;5.692;2022-12-10T07:36:32;53.00;;;19.08;;
42832;SDS011;64089;51.478;5.692;2022-12-10T07:38:57;56.33;;;17.27;;
42832;SDS011;64089;51.478;5.692;2022-12-10T07:41:23;47.15;;;14.98;;
42832;SDS011;64089;51.478;5.692;2022-12-10T07:43:50;48.95;;;16.08;;
42832;SDS011;64089;51.478;5.692;2022-12-10T07:46:20;58.60;;;19.17;;
42832;SDS011;64089;51.478;5.692;2022-12-10T07:48:50;57.53;;;18.80;;
42832;SDS011;64089;51.478;5.692;2022-12-10T07:51:17;63.45;;;18.33;;
42832;SDS011;64089;51.478;5.692;2022-12-10T07:53:44;60.83;;;18.27;;
42832;SDS011;64089;51.478;5.692;2022-12-10T07:56:10;54.72;;;17.70;;
42832;SDS011;64089;51.478;5.692;2022-12-10T07:58:36;56.63;;;18.00;;
42832;SDS011;64089;51.478;5.692;2022-12-10T08:01:09;54.03;;;17.27;;
42832;SDS011;64089;51.478;5.692;2022-12-10T08:03:37;56.55;;;18.48;;
42832;SDS011;64089;51.478;5.692;2022-12-10T08:08:29;50.38;;;17.38;;
42832;SDS011;64089;51.478;5.692;2022-12-10T08:10:55;64.20;;;19.38;;
42832;SDS011;64089;51.478;5.692;2022-12-10T08:13:24;56.70;;;17.52;;
42832;SDS011;64089;51.478;5.692;2022-12-10T08:15:50;71.50;;;19.08;;
42832;SDS011;64089;51.478;5.692;2022-12-10T08:18:15;48.22;;;16.42;;
42832;SDS011;64089;51.478;5.692;2022-12-10T08:20:41;52.50;;;17.42;;
42832;SDS011;64089;51.478;5.692;2022-12-10T08:23:06;52.03;;;16.45;;
42832;SDS011;64089;51.478;5.692;2022-12-10T08:25:32;60.47;;;18.17;;
42832;SDS011;64089;51.478;5.692;2022-12-10T08:27:58;55.80;;;18.50;;
42832;SDS011;64089;51.478;5.692;2022-12-10T08:30:27;47.63;;;17.45;;
42832;SDS011;64089;51.478;5.692;2022-12-10T08:32:53;51.10;;;17.58;;
42832;SDS011;64089;51.478;5.692;2022-12-10T08:35:19;56.95;;;18.05;;
42832;SDS011;64089;51.478;5.692;2022-12-10T08:37:44;57.55;;;16.88;;
42832;SDS011;64089;51.478;5.692;2022-12-10T08:40:10;48.70;;;17.00;;
42832;SDS011;64089;51.478;5.692;2022-12-10T08:42:36;53.55;;;16.30;;
42832;SDS011;64089;51.478;5.692;2022-12-10T08:45:02;53.90;;;16.55;;
42832;SDS011;64089;51.478;5.692;2022-12-10T08:47:28;57.03;;;19.88;;
42832;SDS011;64089;51.478;5.692;2022-12-10T08:49:53;53.60;;;17.42;;
42832;SDS011;64089;51.478;5.692;2022-12-10T08:52:19;53.63;;;17.95;;
42832;SDS011;64089;51.478;5.692;2022-12-10T08:54:44;51.13;;;17.55;;
42832;SDS011;64089;51.478;5.692;2022-12-10T08:57:10;66.53;;;19.42;;
42832;SDS011;64089;51.478;5.692;2022-12-10T08:59:36;56.75;;;17.90;;
42832;SDS011;64089;51.478;5.692;2022-12-10T09:02:01;53.22;;;17.67;;
42832;SDS011;64089;51.478;5.692;2022-12-10T09:04:27;61.83;;;18.17;;
42832;SDS011;64089;51.478;5.692;2022-12-10T09:06:52;59.75;;;19.90;;
42832;SDS011;64089;51.478;5.692;2022-12-10T09:09:18;58.60;;;18.42;;
42832;SDS011;64089;51.478;5.692;2022-12-10T09:11:44;69.85;;;18.67;;
42832;SDS011;64089;51.478;5.692;2022-12-10T09:14:10;61.08;;;19.33;;
42832;SDS011;64089;51.478;5.692;2022-12-10T09:16:37;51.72;;;16.98;;
42832;SDS011;64089;51.478;5.692;2022-12-10T09:19:04;49.75;;;18.60;;
42832;SDS011;64089;51.478;5.692;2022-12-10T09:21:31;59.15;;;18.15;;
42832;SDS011;64089;51.478;5.692;2022-12-10T09:23:57;63.03;;;18.13;;
42832;SDS011;64089;51.478;5.692;2022-12-10T09:26:24;69.82;;;19.00;;
42832;SDS011;64089;51.478;5.692;2022-12-10T09:28:50;64.22;;;19.83;;
42832;SDS011;64089;51.478;5.692;2022-12-10T09:31:16;60.80;;;19.55;;
42832;SDS011;64089;51.478;5.692;2022-12-10T09:33:44;62.28;;;19.45;;
42832;SDS011;64089;51.478;5.692;2022-12-10T09:36:11;61.45;;;20.45;;
42832;SDS011;64089;51.478;5.692;2022-12-10T09:38:38;51.97;;;16.75;;
42832;SDS011;64089;51.478;5.692;2022-12-10T09:49:15;66.85;;;19.45;;
42832;SDS011;64089;51.478;5.692;2022-12-10T09:51:59;57.03;;;17.88;;
42832;SDS011;64089;51.478;5.692;2022-12-10T09:54:35;58.03;;;17.45;;
42832;SDS011;64089;51.478;5.692;2022-12-10T09:57:06;72.95;;;18.63;;
42832;SDS011;64089;51.478;5.692;2022-12-10T09:59:40;112.00;;;39.30;;
42832;SDS011;64089;51.478;5.692;2022-12-10T10:02:26;125.55;;;35.85;;
42832;SDS011;64089;51.478;5.692;2022-12-10T10:04:59;217.40;;;75.77;;
42832;SDS011;64089;51.478;5.692;2022-12-10T10:07:33;74.95;;;25.92;;
42832;SDS011;64089;51.478;5.692;2022-12-10T10:10:04;64.85;;;19.95;;
42832;SDS011;64089;51.478;5.692;2022-12-10T10:12:50;63.17;;;18.13;;
42832;SDS011;64089;51.478;5.692;2022-12-10T10:15:18;61.40;;;18.50;;
42832;SDS011;64089;51.478;5.692;2022-12-10T10:17:57;74.45;;;21.02;;
42832;SDS011;64089;51.478;5.692;2022-12-10T10:20:27;73.50;;;22.17;;
42832;SDS011;64089;51.478;5.692;2022-12-10T10:22:53;53.70;;;18.20;;
42832;SDS011;64089;51.478;5.692;2022-12-10T10:25:22;65.93;;;20.02;;
42832;SDS011;64089;51.478;5.692;2022-12-10T10:27:48;56.75;;;17.67;;
42832;SDS011;64089;51.478;5.692;2022-12-10T10:30:18;54.08;;;15.73;;
42832;SDS011;64089;51.478;5.692;2022-12-10T10:32:49;62.10;;;18.10;;
42832;SDS011;64089;51.478;5.692;2022-12-10T10:35:24;60.40;;;17.58;;
42832;SDS011;64089;51.478;5.692;2022-12-10T10:37:59;56.95;;;16.67;;
42832;SDS011;64089;51.478;5.692;2022-12-10T10:40:59;58.05;;;19.50;;
42832;SDS011;64089;51.478;5.692;2022-12-10T10:43:23;68.95;;;17.52;;
42832;SDS011;64089;51.478;5.692;2022-12-10T10:48:19;59.92;;;18.45;;
42832;SDS011;64089;51.478;5.692;2022-12-10T10:50:51;58.60;;;18.30;;
42832;SDS011;64089;51.478;5.692;2022-12-10T10:53:38;57.40;;;16.85;;
42832;SDS011;64089;51.478;5.692;2022-12-10T10:56:10;53.53;;;16.20;;
42832;SDS011;64089;51.478;5.692;2022-12-10T10:58:55;48.47;;;16.48;;
42832;SDS011;64089;51.478;5.692;2022-12-10T11:01:24;58.72;;;17.23;;
42832;SDS011;64089;51.478;5.692;2022-12-10T11:03:55;60.42;;;17.50;;
42832;SDS011;64089;51.478;5.692;2022-12-10T11:06:24;58.35;;;16.95;;
42832;SDS011;64089;51.478;5.692;2022-12-10T11:08:51;68.03;;;17.95;;
42832;SDS011;64089;51.478;5.692;2022-12-10T11:11:22;57.85;;;15.85;;
42832;SDS011;64089;51.478;5.692;2022-12-10T11:14:13;53.22;;;15.25;;
42832;SDS011;64089;51.478;5.692;2022-12-10T11:16:40;49.28;;;15.52;;
42832;SDS011;64089;51.478;5.692;2022-12-10T11:19:07;51.28;;;17.08;;
42832;SDS011;64089;51.478;5.692;2022-12-10T11:21:46;49.03;;;15.55;;
42832;SDS011;64089;51.478;5.692;2022-12-10T11:24:12;50.38;;;15.57;;
42832;SDS011;64089;51.478;5.692;2022-12-10T11:40:13;50.38;;;16.85;;
42832;SDS011;64089;51.478;5.692;2022-12-10T11:51:02;58.33;;;17.95;;
42832;SDS011;64089;51.478;5.692;2022-12-10T11:53:51;52.28;;;15.20;;
42832;SDS011;64089;51.478;5.692;2022-12-10T11:56:37;53.90;;;16.67;;
42832;SDS011;64089;51.478;5.692;2022-12-10T11:59:14;59.85;;;17.02;;
42832;SDS011;64089;51.478;5.692;2022-12-10T12:05:03;67.55;;;23.90;;
42832;SDS011;64089;51.478;5.692;2022-12-10T12:13:01;65.50;;;22.48;;
42832;SDS011;64089;51.478;5.692;2022-12-10T12:15:33;51.80;;;16.30;;
42832;SDS011;64089;51.478;5.692;2022-12-10T12:21:02;53.90;;;16.08;;
42832;SDS011;64089;51.478;5.692;2022-12-10T12:26:14;48.65;;;16.27;;
42832;SDS011;64089;51.478;5.692;2022-12-10T12:29:33;58.50;;;15.73;;
42832;SDS011;64089;51.478;5.692;2022-12-10T12:37:14;47.33;;;16.45;;
42832;SDS011;64089;51.478;5.692;2022-12-10T12:39:48;51.40;;;16.40;;
42832;SDS011;64089;51.478;5.692;2022-12-10T12:42:43;50.13;;;16.30;;
42832;SDS011;64089;51.478;5.692;2022-12-10T12:45:15;55.53;;;15.48;;
42832;SDS011;64089;51.478;5.692;2022-12-10T12:53:17;55.20;;;17.02;;
42832;SDS011;64089;51.478;5.692;2022-12-10T12:55:50;55.30;;;16.95;;
42832;SDS011;64089;51.478;5.692;2022-12-10T13:01:58;49.50;;;16.63;;
42832;SDS011;64089;51.478;5.692;2022-12-10T13:04:02;62.97;;;16.35;;
42832;SDS011;64089;51.478;5.692;2022-12-10T13:06:35;41.35;;;14.50;;
42832;SDS011;64089;51.478;5.692;2022-12-10T13:11:39;101.50;;;37.22;;
42832;SDS011;64089;51.478;5.692;2022-12-10T13:14:15;189.05;;;57.33;;
42832;SDS011;64089;51.478;5.692;2022-12-10T13:17:40;158.05;;;51.42;;
42832;SDS011;64089;51.478;5.692;2022-12-10T13:28:21;66.53;;;18.10;;
42832;SDS011;64089;51.478;5.692;2022-12-10T13:36:35;61.38;;;17.73;;
42832;SDS011;64089;51.478;5.692;2022-12-10T13:39:22;48.85;;;16.67;;
42832;SDS011;64089;51.478;5.692;2022-12-10T13:47:23;48.35;;;15.88;;
42832;SDS011;64089;51.478;5.692;2022-12-10T13:49:56;62.95;;;17.73;;
42832;SDS011;64089;51.478;5.692;2022-12-10T13:52:26;55.53;;;16.30;;
42832;SDS011;64089;51.478;5.692;2022-12-10T13:54:58;56.08;;;18.73;;
42832;SDS011;64089;51.478;5.692;2022-12-10T14:01:25;60.35;;;19.25;;
42832;SDS011;64089;51.478;5.692;2022-12-10T14:06:19;61.50;;;18.77;;
42832;SDS011;64089;51.478;5.692;2022-12-10T14:08:57;56.63;;;17.67;;
42832;SDS011;64089;51.478;5.692;2022-12-10T14:11:28;51.05;;;15.73;;
42832;SDS011;64089;51.478;5.692;2022-12-10T14:13:58;52.65;;;16.17;;
42832;SDS011;64089;51.478;5.692;2022-12-10T14:16:27;54.03;;;15.02;;
42832;SDS011;64089;51.478;5.692;2022-12-10T14:19:00;66.20;;;16.92;;
42832;SDS011;64089;51.478;5.692;2022-12-10T14:21:33;57.65;;;16.25;;
42832;SDS011;64089;51.478;5.692;2022-12-10T14:24:00;49.33;;;17.52;;
42832;SDS011;64089;51.478;5.692;2022-12-10T14:26:27;49.58;;;17.98;;
42832;SDS011;64089;51.478;5.692;2022-12-10T14:28:57;55.50;;;16.58;;
42832;SDS011;64089;51.478;5.692;2022-12-10T14:31:32;45.67;;;15.45;;
42832;SDS011;64089;51.478;5.692;2022-12-10T14:34:02;54.25;;;14.80;;
42832;SDS011;64089;51.478;5.692;2022-12-10T14:36:36;55.90;;;15.75;;
42832;SDS011;64089;51.478;5.692;2022-12-10T14:39:10;64.78;;;17.98;;
42832;SDS011;64089;51.478;5.692;2022-12-10T14:41:46;52.65;;;16.20;;
42832;SDS011;64089;51.478;5.692;2022-12-10T14:44:14;59.85;;;15.68;;
42832;SDS011;64089;51.478;5.692;2022-12-10T14:46:42;52.70;;;15.63;;
42832;SDS011;64089;51.478;5.692;2022-12-10T14:49:12;58.72;;;15.40;;
42832;SDS011;64089;51.478;5.692;2022-12-10T14:51:44;60.75;;;15.65;;
42832;SDS011;64089;51.478;5.692;2022-12-10T14:57:12;55.03;;;15.85;;
42832;SDS011;64089;51.478;5.692;2022-12-10T15:00:04;45.55;;;13.02;;
42832;SDS011;64089;51.478;5.692;2022-12-10T15:02:39;56.42;;;14.77;;
42832;SDS011;64089;51.478;5.692;2022-12-10T15:05:17;64.95;;;16.90;;
42832;SDS011;64089;51.478;5.692;2022-12-10T15:07:52;55.50;;;17.00;;
42832;SDS011;64089;51.478;5.692;2022-12-10T15:10:36;52.78;;;15.90;;
42832;SDS011;64089;51.478;5.692;2022-12-10T15:13:07;55.47;;;15.98;;
42832;SDS011;64089;51.478;5.692;2022-12-10T15:15:43;56.47;;;15.65;;
42832;SDS011;64089;51.478;5.692;2022-12-10T15:18:34;65.85;;;16.55;;
42832;SDS011;64089;51.478;5.692;2022-12-10T15:21:23;54.60;;;14.00;;
42832;SDS011;64089;51.478;5.692;2022-12-10T15:23:49;66.50;;;17.48;;
42832;SDS011;64089;51.478;5.692;2022-12-10T15:26:22;48.20;;;14.50;;
42832;SDS011;64089;51.478;5.692;2022-12-10T15:28:50;54.47;;;15.82;;
42832;SDS011;64089;51.478;5.692;2022-12-10T15:33:55;55.97;;;15.60;;
42832;SDS011;64089;51.478;5.692;2022-12-10T15:36:29;60.13;;;16.60;;
42832;SDS011;64089;51.478;5.692;2022-12-10T15:38:56;58.53;;;17.75;;
42832;SDS011;64089;51.478;5.692;2022-12-10T15:41:23;64.55;;;17.83;;
42832;SDS011;64089;51.478;5.692;2022-12-10T15:46:57;66.38;;;17.73;;
42832;SDS011;64089;51.478;5.692;2022-12-10T15:49:23;63.67;;;18.35;;
42832;SDS011;64089;51.478;5.692;2022-12-10T15:51:49;71.88;;;18.45;;
42832;SDS011;64089;51.478;5.692;2022-12-10T15:54:19;61.47;;;15.15;;
42832;SDS011;64089;51.478;5.692;2022-12-10T15:56:47;55.60;;;15.88;;
42832;SDS011;64089;51.478;5.692;2022-12-10T15:59:13;56.50;;;16.98;;
42832;SDS011;64089;51.478;5.692;2022-12-10T16:01:39;61.30;;;15.68;;
42832;SDS011;64089;51.478;5.692;2022-12-10T16:04:04;59.00;;;18.27;;
42832;SDS011;64089;51.478;5.692;2022-12-10T16:06:30;49.03;;;14.50;;
42832;SDS011;64089;51.478;5.692;2022-12-10T16:08:56;59.83;;;17.17;;
42832;SDS011;64089;51.478;5.692;2022-12-10T16:11:21;54.20;;;16.30;;
42832;SDS011;64089;51.478;5.692;2022-12-10T16:13:51;56.55;;;17.60;;
42832;SDS011;64089;51.478;5.692;2022-12-10T16:18:45;58.35;;;16.13;;
42832;SDS011;64089;51.478;5.692;2022-12-10T16:21:11;57.72;;;17.63;;
42832;SDS011;64089;51.478;5.692;2022-12-10T16:23:37;61.35;;;17.75;;
42832;SDS011;64089;51.478;5.692;2022-12-10T16:26:24;56.03;;;17.65;;
42832;SDS011;64089;51.478;5.692;2022-12-10T16:28:49;61.22;;;16.67;;
42832;SDS011;64089;51.478;5.692;2022-12-10T16:31:17;66.65;;;18.52;;
42832;SDS011;64089;51.478;5.692;2022-12-10T16:33:45;58.85;;;16.95;;
42832;SDS011;64089;51.478;5.692;2022-12-10T16:36:12;63.35;;;16.27;;
42832;SDS011;64089;51.478;5.692;2022-12-10T16:38:39;57.10;;;17.83;;
42832;SDS011;64089;51.478;5.692;2022-12-10T16:41:15;65.75;;;17.15;;
42832;SDS011;64089;51.478;5.692;2022-12-10T16:43:47;60.72;;;16.38;;
42832;SDS011;64089;51.478;5.692;2022-12-10T16:46:13;68.78;;;19.17;;